LHA1022 EDDH-EDDP
Flight info
| Callsign | LHA1022 |
|---|---|
| Flight time | 0h 43m |
| Altitude | 22000 |
| Route | AMLUH M852 DENIX Z113 OBATU/N0398F230 Z113 SAS Z88 UPDAT T236 ADMOS T959 KOJEC |
| Aircraft | A320/M-SDE1E2FGIJ1RWYZE3/LB1 |
Departure
| Time | 2026-05-04 12:15 |
|---|---|
| Airport | Hamburg Helmut Schmidt Airport (EDDH) |
Arrival
| Time | 2026-05-04 12:59 |
|---|---|
| Airport | Leipzig/Halle Airport (EDDP) |
| Time | Latitude | Longitude | Altitude | Speed | Heading |
|---|---|---|---|---|---|
| 2026-05-04 11:34 | 53.63113 | 10.00370 | 51 ft | 0 kts | 86° |
| 2026-05-04 12:07 | 53.63112 | 10.00346 | 47 ft | 4 kts | 86° |
| 2026-05-04 12:07 | 53.63110 | 10.00300 | 51 ft | 4 kts | 86° |
| 2026-05-04 12:08 | 53.63108 | 10.00255 | 51 ft | 4 kts | 86° |
| 2026-05-04 12:08 | 53.63107 | 10.00219 | 51 ft | 4 kts | 101° |
| 2026-05-04 12:08 | 53.63118 | 10.00192 | 51 ft | 4 kts | 172° |
| 2026-05-04 12:08 | 53.63111 | 10.00192 | 51 ft | 2 kts | 176° |
| 2026-05-04 12:09 | 53.63109 | 10.00193 | 51 ft | 0 kts | 176° |
| 2026-05-04 12:12 | 53.63097 | 10.00193 | 51 ft | 3 kts | 178° |
| 2026-05-04 12:13 | 53.63077 | 10.00185 | 48 ft | 3 kts | 200° |
| 2026-05-04 12:14 | 53.62888 | 9.99729 | 49 ft | 22 kts | 316° |
| 2026-05-04 12:15 | 53.63180 | 9.99470 | 50 ft | 84 kts | 333° |
| 2026-05-04 12:15 | 53.63899 | 9.98851 | 50 ft | 145 kts | 332° |
| 2026-05-04 12:15 | 53.64828 | 9.98062 | 596 ft | 147 kts | 333° |
| 2026-05-04 12:15 | 53.65744 | 9.97307 | 1304 ft | 147 kts | 333° |
| 2026-05-04 12:16 | 53.66731 | 9.96489 | 1713 ft | 169 kts | 333° |
| 2026-05-04 12:16 | 53.67837 | 9.95539 | 2174 ft | 187 kts | 332° |
| 2026-05-04 12:16 | 53.69136 | 9.94714 | 2557 ft | 213 kts | 352° |
| 2026-05-04 12:16 | 53.70642 | 9.94705 | 3350 ft | 218 kts | 359° |
| 2026-05-04 12:17 | 53.72164 | 9.94866 | 4218 ft | 223 kts | 15° |
| 2026-05-04 12:17 | 53.73429 | 9.96368 | 4995 ft | 230 kts | 55° |
| 2026-05-04 12:17 | 53.73962 | 9.98910 | 5798 ft | 234 kts | 81° |
| 2026-05-04 12:17 | 53.74149 | 10.01665 | 6620 ft | 238 kts | 91° |
| 2026-05-04 12:18 | 53.73871 | 10.04428 | 7342 ft | 247 kts | 110° |
| 2026-05-04 12:18 | 53.73062 | 10.07136 | 7751 ft | 270 kts | 122° |
| 2026-05-04 12:18 | 53.72079 | 10.09972 | 8330 ft | 287 kts | 121° |
| 2026-05-04 12:18 | 53.71076 | 10.12925 | 9152 ft | 293 kts | 121° |
| 2026-05-04 12:19 | 53.70049 | 10.15934 | 10018 ft | 297 kts | 124° |
| 2026-05-04 12:19 | 53.68705 | 10.18713 | 10465 ft | 317 kts | 139° |
| 2026-05-04 12:19 | 53.66861 | 10.20948 | 10754 ft | 338 kts | 154° |
| 2026-05-04 12:19 | 53.64620 | 10.22326 | 11313 ft | 347 kts | 167° |
| 2026-05-04 12:20 | 53.62269 | 10.23366 | 12097 ft | 352 kts | 167° |
| 2026-05-04 12:20 | 53.59895 | 10.24440 | 12878 ft | 355 kts | 167° |
| 2026-05-04 12:20 | 53.57505 | 10.25537 | 13630 ft | 358 kts | 167° |
| 2026-05-04 12:20 | 53.55089 | 10.26651 | 14364 ft | 362 kts | 167° |
| 2026-05-04 12:21 | 53.52654 | 10.27773 | 15075 ft | 364 kts | 167° |
| 2026-05-04 12:21 | 53.50194 | 10.28904 | 15759 ft | 368 kts | 167° |
| 2026-05-04 12:21 | 53.47716 | 10.30039 | 16434 ft | 371 kts | 167° |
| 2026-05-04 12:21 | 53.45211 | 10.31185 | 17094 ft | 375 kts | 167° |
| 2026-05-04 12:22 | 53.42683 | 10.32343 | 17741 ft | 378 kts | 168° |
| 2026-05-04 12:22 | 53.40135 | 10.33498 | 18382 ft | 381 kts | 168° |
| 2026-05-04 12:22 | 53.37566 | 10.34655 | 19009 ft | 384 kts | 168° |
| 2026-05-04 12:22 | 53.34975 | 10.35814 | 19628 ft | 387 kts | 168° |
| 2026-05-04 12:23 | 53.32361 | 10.36981 | 20234 ft | 390 kts | 168° |
| 2026-05-04 12:23 | 53.29726 | 10.38159 | 20819 ft | 394 kts | 168° |
| 2026-05-04 12:23 | 53.27070 | 10.39347 | 21383 ft | 397 kts | 168° |
| 2026-05-04 12:23 | 53.24386 | 10.40547 | 21935 ft | 400 kts | 168° |
| 2026-05-04 12:24 | 53.21692 | 10.41751 | 22461 ft | 403 kts | 168° |
| 2026-05-04 12:24 | 53.18970 | 10.42971 | 22868 ft | 406 kts | 168° |
| 2026-05-04 12:24 | 53.16274 | 10.44180 | 22971 ft | 410 kts | 168° |
| 2026-05-04 12:24 | 53.13484 | 10.45207 | 22990 ft | 411 kts | 175° |
| 2026-05-04 12:25 | 53.10635 | 10.45471 | 22984 ft | 409 kts | 185° |
| 2026-05-04 12:25 | 53.07801 | 10.45196 | 22980 ft | 408 kts | 186° |
| 2026-05-04 12:25 | 53.04959 | 10.44904 | 22981 ft | 409 kts | 186° |
| 2026-05-04 12:25 | 53.02120 | 10.44620 | 22980 ft | 409 kts | 186° |
| 2026-05-04 12:26 | 52.99275 | 10.44340 | 22980 ft | 409 kts | 186° |
| 2026-05-04 12:26 | 52.96437 | 10.44058 | 22980 ft | 409 kts | 186° |
| 2026-05-04 12:26 | 52.93591 | 10.43774 | 22980 ft | 410 kts | 186° |
| 2026-05-04 12:26 | 52.90749 | 10.43495 | 22980 ft | 409 kts | 186° |
| 2026-05-04 12:27 | 52.87908 | 10.43217 | 22979 ft | 410 kts | 186° |
| 2026-05-04 12:27 | 52.85058 | 10.42940 | 22978 ft | 410 kts | 186° |
| 2026-05-04 12:27 | 52.82216 | 10.42664 | 22976 ft | 409 kts | 186° |
| 2026-05-04 12:27 | 52.79375 | 10.42386 | 22974 ft | 409 kts | 186° |
| 2026-05-04 12:28 | 52.76530 | 10.42107 | 22972 ft | 409 kts | 186° |
| 2026-05-04 12:28 | 52.73690 | 10.41720 | 22970 ft | 408 kts | 191° |
| 2026-05-04 12:28 | 52.70948 | 10.40626 | 22970 ft | 405 kts | 201° |
| 2026-05-04 12:28 | 52.68385 | 10.38759 | 22967 ft | 403 kts | 211° |
| 2026-05-04 12:29 | 52.66049 | 10.36219 | 22967 ft | 402 kts | 217° |
| 2026-05-04 12:29 | 52.63782 | 10.33531 | 22967 ft | 402 kts | 217° |
| 2026-05-04 12:29 | 52.61507 | 10.30845 | 22959 ft | 402 kts | 217° |
| 2026-05-04 12:29 | 52.59228 | 10.28165 | 22960 ft | 403 kts | 217° |
| 2026-05-04 12:30 | 52.56949 | 10.25494 | 22960 ft | 403 kts | 217° |
| 2026-05-04 12:30 | 52.54663 | 10.22818 | 22963 ft | 403 kts | 217° |
| 2026-05-04 12:30 | 52.52378 | 10.20142 | 22964 ft | 403 kts | 217° |
| 2026-05-04 12:30 | 52.50093 | 10.17469 | 22963 ft | 404 kts | 217° |
| 2026-05-04 12:31 | 52.47803 | 10.14793 | 22964 ft | 404 kts | 217° |
| 2026-05-04 12:31 | 52.45514 | 10.12123 | 22966 ft | 404 kts | 216° |
| 2026-05-04 12:31 | 52.43221 | 10.09451 | 22969 ft | 405 kts | 216° |
| 2026-05-04 12:31 | 52.40920 | 10.06773 | 22968 ft | 405 kts | 216° |
| 2026-05-04 12:32 | 52.38623 | 10.04100 | 22970 ft | 405 kts | 216° |
| 2026-05-04 12:32 | 52.34025 | 9.98765 | 22973 ft | 405 kts | 216° |
| 2026-05-04 12:32 | 52.31719 | 9.96101 | 22975 ft | 406 kts | 216° |
| 2026-05-04 12:33 | 52.29269 | 9.93822 | 22975 ft | 408 kts | 204° |
| 2026-05-04 12:33 | 52.26539 | 9.92552 | 22976 ft | 410 kts | 190° |
| 2026-05-04 12:33 | 52.23681 | 9.92419 | 22975 ft | 414 kts | 176° |
| 2026-05-04 12:33 | 52.20864 | 9.93449 | 22975 ft | 418 kts | 162° |
| 2026-05-04 12:34 | 52.18261 | 9.95575 | 22975 ft | 421 kts | 149° |
| 2026-05-04 12:34 | 52.15798 | 9.98150 | 22975 ft | 422 kts | 149° |
| 2026-05-04 12:34 | 52.13328 | 10.00737 | 22975 ft | 422 kts | 149° |
| 2026-05-04 12:34 | 52.10857 | 10.03321 | 22977 ft | 422 kts | 150° |
| 2026-05-04 12:35 | 52.08391 | 10.05899 | 22973 ft | 421 kts | 149° |
| 2026-05-04 12:35 | 52.05955 | 10.08439 | 22977 ft | 422 kts | 149° |
| 2026-05-04 12:35 | 52.03451 | 10.11039 | 22981 ft | 422 kts | 149° |
| 2026-05-04 12:35 | 52.00977 | 10.13597 | 22986 ft | 422 kts | 150° |
| 2026-05-04 12:36 | 51.98497 | 10.16156 | 22990 ft | 422 kts | 150° |
| 2026-05-04 12:36 | 51.96856 | 10.17849 | 22993 ft | 422 kts | 149° |
| 2026-05-04 12:36 | 51.94494 | 10.20694 | 22994 ft | 425 kts | 140° |
| 2026-05-04 12:36 | 51.92463 | 10.24181 | 22996 ft | 427 kts | 130° |
| 2026-05-04 12:37 | 51.90817 | 10.28212 | 22998 ft | 430 kts | 120° |
| 2026-05-04 12:37 | 51.89423 | 10.32479 | 22996 ft | 430 kts | 120° |
| 2026-05-04 12:37 | 51.87566 | 10.38147 | 22993 ft | 430 kts | 120° |
| 2026-05-04 12:37 | 51.86156 | 10.42417 | 23002 ft | 430 kts | 120° |
| 2026-05-04 12:38 | 51.85201 | 10.45299 | 23014 ft | 430 kts | 120° |
| 2026-05-04 12:38 | 51.83787 | 10.49554 | 23008 ft | 430 kts | 120° |
| 2026-05-04 12:38 | 51.82375 | 10.53804 | 23001 ft | 429 kts | 120° |
| 2026-05-04 12:38 | 51.80956 | 10.58060 | 22997 ft | 429 kts | 120° |
| 2026-05-04 12:39 | 51.79542 | 10.62298 | 22880 ft | 427 kts | 120° |
| 2026-05-04 12:39 | 51.78140 | 10.66497 | 22627 ft | 422 kts | 120° |
| 2026-05-04 12:39 | 51.76762 | 10.70626 | 22129 ft | 417 kts | 120° |
| 2026-05-04 12:39 | 51.75409 | 10.74676 | 21571 ft | 413 kts | 120° |
| 2026-05-04 12:40 | 51.74053 | 10.78735 | 21040 ft | 409 kts | 120° |
| 2026-05-04 12:40 | 51.72714 | 10.82759 | 20523 ft | 406 kts | 118° |
| 2026-05-04 12:40 | 51.71609 | 10.86929 | 20009 ft | 403 kts | 113° |
| 2026-05-04 12:40 | 51.70595 | 10.91121 | 19528 ft | 399 kts | 113° |
| 2026-05-04 12:41 | 51.69590 | 10.95263 | 19031 ft | 394 kts | 113° |
| 2026-05-04 12:41 | 51.68594 | 10.99362 | 18508 ft | 392 kts | 113° |
| 2026-05-04 12:41 | 51.67604 | 11.03430 | 17990 ft | 388 kts | 113° |
| 2026-05-04 12:41 | 51.66619 | 11.07470 | 17473 ft | 386 kts | 113° |
| 2026-05-04 12:42 | 51.65641 | 11.11468 | 16961 ft | 383 kts | 113° |
| 2026-05-04 12:42 | 51.64667 | 11.15442 | 16416 ft | 381 kts | 113° |
| 2026-05-04 12:42 | 51.63697 | 11.19396 | 15886 ft | 378 kts | 113° |
| 2026-05-04 12:42 | 51.62732 | 11.23317 | 15347 ft | 376 kts | 113° |
| 2026-05-04 12:43 | 51.61610 | 11.27093 | 14823 ft | 372 kts | 122° |
| 2026-05-04 12:43 | 51.60160 | 11.30507 | 14285 ft | 369 kts | 127° |
| 2026-05-04 12:43 | 51.58671 | 11.33855 | 13736 ft | 366 kts | 127° |
| 2026-05-04 12:43 | 51.57191 | 11.37176 | 13198 ft | 364 kts | 127° |
| 2026-05-04 12:44 | 51.55724 | 11.40471 | 12659 ft | 361 kts | 127° |
| 2026-05-04 12:44 | 51.54265 | 11.43743 | 12105 ft | 360 kts | 127° |
| 2026-05-04 12:44 | 51.52897 | 11.47083 | 11542 ft | 358 kts | 119° |
| 2026-05-04 12:44 | 51.51983 | 11.50789 | 11075 ft | 354 kts | 105° |
| 2026-05-04 12:45 | 51.51610 | 11.54611 | 10945 ft | 340 kts | 93° |
| 2026-05-04 12:45 | 51.51694 | 11.58331 | 10814 ft | 326 kts | 85° |
| 2026-05-04 12:45 | 51.51876 | 11.61833 | 10570 ft | 307 kts | 86° |
| 2026-05-04 12:45 | 51.52048 | 11.65217 | 10330 ft | 301 kts | 86° |
| 2026-05-04 12:46 | 51.52217 | 11.68548 | 9985 ft | 298 kts | 86° |
| 2026-05-04 12:46 | 51.52385 | 11.71856 | 9604 ft | 297 kts | 86° |
| 2026-05-04 12:46 | 51.52551 | 11.75154 | 9212 ft | 295 kts | 86° |
| 2026-05-04 12:46 | 51.52717 | 11.78428 | 8828 ft | 294 kts | 86° |
| 2026-05-04 12:47 | 51.52880 | 11.81689 | 8442 ft | 292 kts | 86° |
| 2026-05-04 12:47 | 51.53040 | 11.84932 | 8076 ft | 290 kts | 86° |
| 2026-05-04 12:47 | 51.53201 | 11.88140 | 7989 ft | 289 kts | 86° |
| 2026-05-04 12:47 | 51.53361 | 11.91370 | 8000 ft | 290 kts | 86° |
| 2026-05-04 12:48 | 51.53517 | 11.94549 | 7828 ft | 288 kts | 86° |
| 2026-05-04 12:48 | 51.53673 | 11.97747 | 7403 ft | 287 kts | 86° |
| 2026-05-04 12:48 | 51.53829 | 12.00929 | 7014 ft | 285 kts | 86° |
| 2026-05-04 12:48 | 51.53983 | 12.04093 | 6618 ft | 283 kts | 86° |
| 2026-05-04 12:49 | 51.54136 | 12.07226 | 6236 ft | 281 kts | 86° |
| 2026-05-04 12:49 | 51.54284 | 12.10342 | 5840 ft | 279 kts | 86° |
| 2026-05-04 12:49 | 51.54430 | 12.13441 | 5446 ft | 277 kts | 86° |
| 2026-05-04 12:49 | 51.54574 | 12.16512 | 5068 ft | 274 kts | 86° |
| 2026-05-04 12:50 | 51.54716 | 12.19556 | 5003 ft | 274 kts | 86° |
| 2026-05-04 12:50 | 51.54858 | 12.22616 | 4861 ft | 273 kts | 86° |
| 2026-05-04 12:50 | 51.55001 | 12.25643 | 4537 ft | 267 kts | 86° |
| 2026-05-04 12:50 | 51.55136 | 12.28541 | 4419 ft | 254 kts | 86° |
| 2026-05-04 12:51 | 51.55263 | 12.31302 | 4269 ft | 243 kts | 86° |
| 2026-05-04 12:51 | 51.55387 | 12.33989 | 4060 ft | 239 kts | 86° |
| 2026-05-04 12:51 | 51.55510 | 12.36656 | 3996 ft | 239 kts | 86° |
| 2026-05-04 12:51 | 51.55633 | 12.39328 | 4012 ft | 240 kts | 86° |
| 2026-05-04 12:52 | 51.55757 | 12.42001 | 4019 ft | 240 kts | 86° |
| 2026-05-04 12:52 | 51.55879 | 12.44633 | 4010 ft | 230 kts | 86° |
| 2026-05-04 12:52 | 51.55993 | 12.47128 | 4014 ft | 220 kts | 86° |
| 2026-05-04 12:52 | 51.56042 | 12.49565 | 3873 ft | 217 kts | 100° |
| 2026-05-04 12:53 | 51.55416 | 12.51710 | 3562 ft | 214 kts | 135° |
| 2026-05-04 12:53 | 51.54232 | 12.53108 | 3269 ft | 212 kts | 152° |
| 2026-05-04 12:53 | 51.52899 | 12.54105 | 3030 ft | 210 kts | 169° |
| 2026-05-04 12:53 | 51.51460 | 12.54021 | 3012 ft | 209 kts | 192° |
| 2026-05-04 12:54 | 51.50039 | 12.53500 | 3009 ft | 210 kts | 194° |
| 2026-05-04 12:54 | 51.48618 | 12.52941 | 3002 ft | 210 kts | 195° |
| 2026-05-04 12:54 | 51.47200 | 12.52372 | 3003 ft | 210 kts | 197° |
| 2026-05-04 12:54 | 51.45905 | 12.51384 | 2998 ft | 201 kts | 217° |
| 2026-05-04 12:55 | 51.44956 | 12.49834 | 3002 ft | 192 kts | 237° |
| 2026-05-04 12:55 | 51.44393 | 12.47929 | 2945 ft | 188 kts | 255° |
| 2026-05-04 12:55 | 51.44224 | 12.45918 | 2800 ft | 182 kts | 265° |
| 2026-05-04 12:55 | 51.44138 | 12.43916 | 2545 ft | 177 kts | 265° |
| 2026-05-04 12:56 | 51.44053 | 12.41975 | 2329 ft | 167 kts | 265° |
| 2026-05-04 12:56 | 51.43975 | 12.40225 | 2115 ft | 153 kts | 265° |
| 2026-05-04 12:56 | 51.43902 | 12.38581 | 1919 ft | 145 kts | 265° |
| 2026-05-04 12:56 | 51.43829 | 12.36966 | 1725 ft | 142 kts | 265° |
| 2026-05-04 12:57 | 51.43757 | 12.35397 | 1542 ft | 140 kts | 266° |
| 2026-05-04 12:57 | 51.43688 | 12.33870 | 1360 ft | 136 kts | 266° |
| 2026-05-04 12:57 | 51.43620 | 12.32363 | 1185 ft | 135 kts | 266° |
| 2026-05-04 12:57 | 51.43552 | 12.30867 | 1005 ft | 135 kts | 266° |
| 2026-05-04 12:58 | 51.43483 | 12.29369 | 823 ft | 134 kts | 266° |
| 2026-05-04 12:58 | 51.43417 | 12.27893 | 647 ft | 135 kts | 265° |
| 2026-05-04 12:58 | 51.43349 | 12.26381 | 475 ft | 134 kts | 265° |
| 2026-05-04 12:58 | 51.43287 | 12.25064 | 449 ft | 94 kts | 266° |
| 2026-05-04 12:59 | 51.43250 | 12.24284 | 439 ft | 53 kts | 265° |
| 2026-05-04 12:59 | 51.43180 | 12.23759 | 436 ft | 41 kts | 240° |
| 2026-05-04 12:59 | 51.43079 | 12.23523 | 435 ft | 17 kts | 234° |
| 2026-05-04 12:59 | 51.42976 | 12.23439 | 441 ft | 19 kts | 180° |
| 2026-05-04 13:00 | 51.42900 | 12.23347 | 431 ft | 15 kts | 256° |
| 2026-05-04 13:00 | 51.42888 | 12.23171 | 438 ft | 17 kts | 266° |
| 2026-05-04 13:00 | 51.42878 | 12.22957 | 430 ft | 21 kts | 266° |
| 2026-05-04 13:00 | 51.42867 | 12.22723 | 437 ft | 20 kts | 265° |
| 2026-05-04 13:01 | 51.42855 | 12.22482 | 437 ft | 20 kts | 265° |
| 2026-05-04 13:01 | 51.42844 | 12.22267 | 437 ft | 16 kts | 265° |
| 2026-05-04 13:01 | 51.42835 | 12.22073 | 434 ft | 20 kts | 266° |
| 2026-05-04 13:01 | 51.42824 | 12.21831 | 422 ft | 22 kts | 266° |
| 2026-05-04 13:02 | 51.42812 | 12.21572 | 426 ft | 25 kts | 265° |
| 2026-05-04 13:02 | 51.42801 | 12.21326 | 435 ft | 19 kts | 266° |
| 2026-05-04 13:02 | 51.42704 | 12.21205 | 430 ft | 20 kts | 195° |
| 2026-05-04 13:02 | 51.42562 | 12.21143 | 431 ft | 22 kts | 195° |
| 2026-05-04 13:03 | 51.42421 | 12.21080 | 428 ft | 21 kts | 195° |
| 2026-05-04 13:03 | 51.42284 | 12.21020 | 422 ft | 20 kts | 195° |
| 2026-05-04 13:03 | 51.42162 | 12.20967 | 426 ft | 17 kts | 195° |
| 2026-05-04 13:03 | 51.42073 | 12.20928 | 426 ft | 11 kts | 195° |
| 2026-05-04 13:04 | 51.42003 | 12.20939 | 416 ft | 9 kts | 143° |
| 2026-05-04 13:04 | 51.41981 | 12.21014 | 427 ft | 6 kts | 104° |
| 2026-05-04 13:04 | 51.41966 | 12.21107 | 429 ft | 12 kts | 105° |
| 2026-05-04 13:04 | 51.41937 | 12.21266 | 421 ft | 15 kts | 105° |
| 2026-05-04 13:05 | 51.41912 | 12.21410 | 436 ft | 12 kts | 105° |
| 2026-05-04 13:05 | 51.41890 | 12.21538 | 438 ft | 12 kts | 105° |
| 2026-05-04 13:05 | 51.41867 | 12.21670 | 430 ft | 13 kts | 105° |
| 2026-05-04 13:05 | 51.41845 | 12.21801 | 431 ft | 9 kts | 105° |
| 2026-05-04 13:06 | 51.41867 | 12.21850 | 425 ft | 6 kts | 17° |
| 2026-05-04 13:06 | 51.41902 | 12.21866 | 429 ft | 5 kts | 15° |
| 2026-05-04 13:06 | 51.41929 | 12.21877 | 436 ft | 1 kts | 15° |
| 2026-05-04 13:06 | 51.41936 | 12.21880 | 427 ft | 1 kts | 15° |
| 2026-05-04 13:07 | 51.41937 | 12.21881 | 436 ft | 0 kts | 15° |